sensor_id;sensor_type;location;lat;lon;timestamp;P1;durP1;ratioP1;P2;durP2;ratioP2
67372;SDS011;54257;54.496;18.412;2023-03-01T00:01:40;7.40;;;3.50;;
67372;SDS011;54257;54.496;18.412;2023-03-01T00:04:07;6.70;;;3.90;;
67372;SDS011;54257;54.496;18.412;2023-03-01T00:06:35;7.00;;;3.90;;
67372;SDS011;54257;54.496;18.412;2023-03-01T00:09:02;5.90;;;3.60;;
67372;SDS011;54257;54.496;18.412;2023-03-01T00:11:30;7.90;;;4.30;;
67372;SDS011;54257;54.496;18.412;2023-03-01T00:13:59;7.90;;;4.00;;
67372;SDS011;54257;54.496;18.412;2023-03-01T00:16:30;5.70;;;3.50;;
67372;SDS011;54257;54.496;18.412;2023-03-01T00:19:00;5.00;;;3.20;;
67372;SDS011;54257;54.496;18.412;2023-03-01T00:21:27;7.40;;;4.20;;
67372;SDS011;54257;54.496;18.412;2023-03-01T00:23:55;7.80;;;4.20;;
67372;SDS011;54257;54.496;18.412;2023-03-01T00:26:23;5.40;;;3.80;;
67372;SDS011;54257;54.496;18.412;2023-03-01T00:28:51;7.60;;;4.30;;
67372;SDS011;54257;54.496;18.412;2023-03-01T00:31:20;6.40;;;4.00;;
67372;SDS011;54257;54.496;18.412;2023-03-01T00:33:51;5.90;;;3.90;;
67372;SDS011;54257;54.496;18.412;2023-03-01T00:36:24;7.50;;;3.70;;
67372;SDS011;54257;54.496;18.412;2023-03-01T00:38:53;7.50;;;4.00;;
67372;SDS011;54257;54.496;18.412;2023-03-01T00:41:22;10.00;;;4.30;;
67372;SDS011;54257;54.496;18.412;2023-03-01T00:43:49;6.50;;;4.60;;
67372;SDS011;54257;54.496;18.412;2023-03-01T00:46:18;8.10;;;3.60;;
67372;SDS011;54257;54.496;18.412;2023-03-01T00:48:48;9.70;;;4.90;;
67372;SDS011;54257;54.496;18.412;2023-03-01T00:51:16;8.70;;;4.20;;
67372;SDS011;54257;54.496;18.412;2023-03-01T00:56:23;8.40;;;3.90;;
67372;SDS011;54257;54.496;18.412;2023-03-01T00:58:51;12.40;;;4.90;;
67372;SDS011;54257;54.496;18.412;2023-03-01T01:01:22;11.00;;;5.30;;
67372;SDS011;54257;54.496;18.412;2023-03-01T01:03:55;7.10;;;4.50;;
67372;SDS011;54257;54.496;18.412;2023-03-01T01:06:24;7.70;;;4.80;;
67372;SDS011;54257;54.496;18.412;2023-03-01T01:08:54;9.90;;;4.80;;
67372;SDS011;54257;54.496;18.412;2023-03-01T01:11:23;12.50;;;5.00;;
67372;SDS011;54257;54.496;18.412;2023-03-01T01:13:52;9.00;;;4.90;;
67372;SDS011;54257;54.496;18.412;2023-03-01T01:16:20;8.30;;;4.80;;
67372;SDS011;54257;54.496;18.412;2023-03-01T01:18:49;8.50;;;4.80;;
67372;SDS011;54257;54.496;18.412;2023-03-01T01:21:20;9.80;;;5.30;;
67372;SDS011;54257;54.496;18.412;2023-03-01T01:23:51;9.30;;;5.40;;
67372;SDS011;54257;54.496;18.412;2023-03-01T01:28:45;11.30;;;5.50;;
67372;SDS011;54257;54.496;18.412;2023-03-01T01:31:14;7.60;;;4.90;;
67372;SDS011;54257;54.496;18.412;2023-03-01T01:33:41;11.70;;;5.30;;
67372;SDS011;54257;54.496;18.412;2023-03-01T01:36:09;9.30;;;5.20;;
67372;SDS011;54257;54.496;18.412;2023-03-01T01:38:37;12.30;;;6.00;;
67372;SDS011;54257;54.496;18.412;2023-03-01T01:41:05;11.70;;;5.30;;
67372;SDS011;54257;54.496;18.412;2023-03-01T01:43:34;8.70;;;4.90;;
67372;SDS011;54257;54.496;18.412;2023-03-01T01:49:07;9.80;;;6.40;;
67372;SDS011;54257;54.496;18.412;2023-03-01T01:51:47;11.60;;;6.50;;
67372;SDS011;54257;54.496;18.412;2023-03-01T01:54:21;9.00;;;5.50;;
67372;SDS011;54257;54.496;18.412;2023-03-01T01:56:54;10.50;;;5.70;;
67372;SDS011;54257;54.496;18.412;2023-03-01T01:59:25;12.10;;;6.00;;
67372;SDS011;54257;54.496;18.412;2023-03-01T02:01:55;11.70;;;6.40;;
67372;SDS011;54257;54.496;18.412;2023-03-01T02:04:26;10.00;;;6.10;;
67372;SDS011;54257;54.496;18.412;2023-03-01T02:06:57;15.30;;;6.80;;
67372;SDS011;54257;54.496;18.412;2023-03-01T02:11:54;12.30;;;6.40;;
67372;SDS011;54257;54.496;18.412;2023-03-01T02:14:21;9.20;;;6.10;;
67372;SDS011;54257;54.496;18.412;2023-03-01T02:16:48;11.00;;;6.30;;
67372;SDS011;54257;54.496;18.412;2023-03-01T02:19:20;12.20;;;6.90;;
67372;SDS011;54257;54.496;18.412;2023-03-01T02:22:18;13.10;;;7.60;;
67372;SDS011;54257;54.496;18.412;2023-03-01T02:30:21;11.00;;;6.70;;
67372;SDS011;54257;54.496;18.412;2023-03-01T02:32:52;11.20;;;6.40;;
67372;SDS011;54257;54.496;18.412;2023-03-01T02:35:32;11.80;;;7.40;;
67372;SDS011;54257;54.496;18.412;2023-03-01T02:38:06;16.50;;;7.40;;
67372;SDS011;54257;54.496;18.412;2023-03-01T02:40:35;12.80;;;7.10;;
67372;SDS011;54257;54.496;18.412;2023-03-01T02:43:04;14.90;;;7.80;;
67372;SDS011;54257;54.496;18.412;2023-03-01T02:45:35;14.40;;;8.00;;
67372;SDS011;54257;54.496;18.412;2023-03-01T02:48:02;12.30;;;6.90;;
67372;SDS011;54257;54.496;18.412;2023-03-01T02:53:16;12.90;;;7.70;;
67372;SDS011;54257;54.496;18.412;2023-03-01T02:55:54;12.10;;;8.10;;
67372;SDS011;54257;54.496;18.412;2023-03-01T02:58:21;13.00;;;7.20;;
67372;SDS011;54257;54.496;18.412;2023-03-01T03:00:48;12.90;;;7.20;;
67372;SDS011;54257;54.496;18.412;2023-03-01T03:03:16;13.20;;;7.30;;
67372;SDS011;54257;54.496;18.412;2023-03-01T03:05:45;14.30;;;7.80;;
67372;SDS011;54257;54.496;18.412;2023-03-01T03:08:14;14.40;;;8.60;;
67372;SDS011;54257;54.496;18.412;2023-03-01T03:10:50;16.30;;;8.60;;
67372;SDS011;54257;54.496;18.412;2023-03-01T03:13:17;14.00;;;7.80;;
67372;SDS011;54257;54.496;18.412;2023-03-01T03:15:45;13.30;;;7.60;;
67372;SDS011;54257;54.496;18.412;2023-03-01T03:18:17;14.60;;;8.00;;
67372;SDS011;54257;54.496;18.412;2023-03-01T03:20:45;14.60;;;7.60;;
67372;SDS011;54257;54.496;18.412;2023-03-01T03:23:12;14.80;;;8.50;;
67372;SDS011;54257;54.496;18.412;2023-03-01T03:25:41;13.90;;;8.00;;
67372;SDS011;54257;54.496;18.412;2023-03-01T03:28:08;16.10;;;8.20;;
67372;SDS011;54257;54.496;18.412;2023-03-01T03:30:38;12.80;;;7.80;;
67372;SDS011;54257;54.496;18.412;2023-03-01T03:33:07;16.20;;;8.30;;
67372;SDS011;54257;54.496;18.412;2023-03-01T03:35:54;16.10;;;8.70;;
67372;SDS011;54257;54.496;18.412;2023-03-01T03:38:20;13.20;;;7.60;;
67372;SDS011;54257;54.496;18.412;2023-03-01T03:40:50;14.20;;;6.80;;
67372;SDS011;54257;54.496;18.412;2023-03-01T03:43:19;14.50;;;7.20;;
67372;SDS011;54257;54.496;18.412;2023-03-01T03:45:49;14.90;;;8.00;;
67372;SDS011;54257;54.496;18.412;2023-03-01T03:48:18;15.30;;;8.20;;
67372;SDS011;54257;54.496;18.412;2023-03-01T03:50:47;13.80;;;7.30;;
67372;SDS011;54257;54.496;18.412;2023-03-01T03:53:20;14.00;;;7.30;;
67372;SDS011;54257;54.496;18.412;2023-03-01T03:55:48;12.20;;;7.20;;
67372;SDS011;54257;54.496;18.412;2023-03-01T03:58:18;13.60;;;7.30;;
67372;SDS011;54257;54.496;18.412;2023-03-01T04:00:48;13.90;;;7.20;;
67372;SDS011;54257;54.496;18.412;2023-03-01T04:03:19;13.00;;;7.40;;
67372;SDS011;54257;54.496;18.412;2023-03-01T04:05:47;14.60;;;7.90;;
67372;SDS011;54257;54.496;18.412;2023-03-01T04:08:19;14.00;;;7.40;;
67372;SDS011;54257;54.496;18.412;2023-03-01T04:10:49;11.40;;;7.10;;
67372;SDS011;54257;54.496;18.412;2023-03-01T04:13:21;14.50;;;7.60;;
67372;SDS011;54257;54.496;18.412;2023-03-01T04:15:49;12.80;;;8.10;;
67372;SDS011;54257;54.496;18.412;2023-03-01T04:18:20;13.40;;;7.50;;
67372;SDS011;54257;54.496;18.412;2023-03-01T04:20:49;13.90;;;7.80;;
67372;SDS011;54257;54.496;18.412;2023-03-01T04:23:19;11.50;;;6.40;;
67372;SDS011;54257;54.496;18.412;2023-03-01T04:25:55;14.00;;;7.30;;
67372;SDS011;54257;54.496;18.412;2023-03-01T04:28:24;11.50;;;7.80;;
67372;SDS011;54257;54.496;18.412;2023-03-01T04:30:53;11.90;;;7.30;;
67372;SDS011;54257;54.496;18.412;2023-03-01T04:33:22;12.30;;;6.90;;
67372;SDS011;54257;54.496;18.412;2023-03-01T04:35:52;10.90;;;6.60;;
67372;SDS011;54257;54.496;18.412;2023-03-01T04:38:19;14.40;;;8.20;;
67372;SDS011;54257;54.496;18.412;2023-03-01T04:40:53;16.90;;;8.00;;
67372;SDS011;54257;54.496;18.412;2023-03-01T04:43:20;13.50;;;8.20;;
67372;SDS011;54257;54.496;18.412;2023-03-01T04:45:48;15.80;;;8.40;;
67372;SDS011;54257;54.496;18.412;2023-03-01T04:48:15;16.90;;;9.10;;
67372;SDS011;54257;54.496;18.412;2023-03-01T04:50:43;12.40;;;7.20;;
67372;SDS011;54257;54.496;18.412;2023-03-01T04:53:10;13.40;;;8.70;;
67372;SDS011;54257;54.496;18.412;2023-03-01T04:55:37;14.50;;;8.10;;
67372;SDS011;54257;54.496;18.412;2023-03-01T04:58:07;13.40;;;8.20;;
67372;SDS011;54257;54.496;18.412;2023-03-01T05:00:35;12.90;;;6.90;;
67372;SDS011;54257;54.496;18.412;2023-03-01T05:03:02;12.40;;;7.40;;
67372;SDS011;54257;54.496;18.412;2023-03-01T05:05:31;18.30;;;8.70;;
67372;SDS011;54257;54.496;18.412;2023-03-01T05:08:03;13.20;;;8.20;;
67372;SDS011;54257;54.496;18.412;2023-03-01T05:10:34;12.60;;;8.00;;
67372;SDS011;54257;54.496;18.412;2023-03-01T05:13:05;11.80;;;6.60;;
67372;SDS011;54257;54.496;18.412;2023-03-01T05:15:33;14.70;;;7.80;;
67372;SDS011;54257;54.496;18.412;2023-03-01T05:18:03;14.00;;;7.80;;
67372;SDS011;54257;54.496;18.412;2023-03-01T05:20:34;14.80;;;8.30;;
67372;SDS011;54257;54.496;18.412;2023-03-01T05:23:03;14.30;;;7.40;;
67372;SDS011;54257;54.496;18.412;2023-03-01T05:25:33;14.00;;;8.30;;
67372;SDS011;54257;54.496;18.412;2023-03-01T05:28:02;14.40;;;7.80;;
67372;SDS011;54257;54.496;18.412;2023-03-01T05:30:31;13.40;;;7.90;;
67372;SDS011;54257;54.496;18.412;2023-03-01T05:33:00;14.50;;;8.10;;
67372;SDS011;54257;54.496;18.412;2023-03-01T05:35:27;14.00;;;7.80;;
67372;SDS011;54257;54.496;18.412;2023-03-01T05:37:56;12.30;;;7.60;;
67372;SDS011;54257;54.496;18.412;2023-03-01T05:40:23;13.50;;;7.80;;
67372;SDS011;54257;54.496;18.412;2023-03-01T05:42:52;13.10;;;6.20;;
67372;SDS011;54257;54.496;18.412;2023-03-01T05:45:21;14.60;;;8.20;;
67372;SDS011;54257;54.496;18.412;2023-03-01T05:47:52;15.00;;;7.60;;
67372;SDS011;54257;54.496;18.412;2023-03-01T05:50:25;12.40;;;7.30;;
67372;SDS011;54257;54.496;18.412;2023-03-01T05:53:04;12.70;;;6.70;;
67372;SDS011;54257;54.496;18.412;2023-03-01T05:55:35;13.50;;;7.90;;
67372;SDS011;54257;54.496;18.412;2023-03-01T05:58:07;14.80;;;8.40;;
67372;SDS011;54257;54.496;18.412;2023-03-01T06:00:37;16.50;;;7.50;;
67372;SDS011;54257;54.496;18.412;2023-03-01T06:03:04;12.90;;;7.80;;
67372;SDS011;54257;54.496;18.412;2023-03-01T06:05:32;13.80;;;7.50;;
67372;SDS011;54257;54.496;18.412;2023-03-01T06:07:59;12.80;;;6.90;;
67372;SDS011;54257;54.496;18.412;2023-03-01T06:10:27;15.20;;;7.90;;
67372;SDS011;54257;54.496;18.412;2023-03-01T06:12:55;12.90;;;7.20;;
67372;SDS011;54257;54.496;18.412;2023-03-01T06:15:23;14.00;;;7.60;;
67372;SDS011;54257;54.496;18.412;2023-03-01T06:17:53;16.20;;;8.50;;
67372;SDS011;54257;54.496;18.412;2023-03-01T06:20:24;12.00;;;6.60;;
67372;SDS011;54257;54.496;18.412;2023-03-01T06:22:52;12.10;;;7.70;;
67372;SDS011;54257;54.496;18.412;2023-03-01T06:25:21;16.50;;;7.70;;
67372;SDS011;54257;54.496;18.412;2023-03-01T06:27:49;11.30;;;6.70;;
67372;SDS011;54257;54.496;18.412;2023-03-01T06:30:17;16.20;;;7.90;;
67372;SDS011;54257;54.496;18.412;2023-03-01T06:32:46;16.60;;;7.20;;
67372;SDS011;54257;54.496;18.412;2023-03-01T06:35:13;13.30;;;7.00;;
67372;SDS011;54257;54.496;18.412;2023-03-01T06:37:44;16.30;;;7.90;;
67372;SDS011;54257;54.496;18.412;2023-03-01T06:40:12;16.20;;;7.60;;
67372;SDS011;54257;54.496;18.412;2023-03-01T06:42:43;15.00;;;8.00;;
67372;SDS011;54257;54.496;18.412;2023-03-01T06:45:17;15.70;;;8.30;;
67372;SDS011;54257;54.496;18.412;2023-03-01T06:47:46;12.70;;;6.60;;
67372;SDS011;54257;54.496;18.412;2023-03-01T06:50:16;14.90;;;7.30;;
67372;SDS011;54257;54.496;18.412;2023-03-01T06:52:44;10.10;;;6.80;;
67372;SDS011;54257;54.496;18.412;2023-03-01T06:55:12;13.40;;;6.90;;
67372;SDS011;54257;54.496;18.412;2023-03-01T06:57:39;12.20;;;6.90;;
67372;SDS011;54257;54.496;18.412;2023-03-01T07:00:07;15.10;;;8.20;;
67372;SDS011;54257;54.496;18.412;2023-03-01T07:02:36;10.50;;;6.60;;
67372;SDS011;54257;54.496;18.412;2023-03-01T07:05:03;10.70;;;6.90;;
67372;SDS011;54257;54.496;18.412;2023-03-01T07:07:31;13.40;;;7.30;;
67372;SDS011;54257;54.496;18.412;2023-03-01T07:09:58;10.70;;;6.60;;
67372;SDS011;54257;54.496;18.412;2023-03-01T07:12:25;10.60;;;6.40;;
67372;SDS011;54257;54.496;18.412;2023-03-01T07:14:52;13.50;;;6.90;;
67372;SDS011;54257;54.496;18.412;2023-03-01T07:17:19;9.90;;;6.20;;
67372;SDS011;54257;54.496;18.412;2023-03-01T07:19:46;10.30;;;6.10;;
67372;SDS011;54257;54.496;18.412;2023-03-01T07:22:14;12.90;;;7.80;;
67372;SDS011;54257;54.496;18.412;2023-03-01T07:24:41;11.00;;;6.20;;
67372;SDS011;54257;54.496;18.412;2023-03-01T07:27:09;11.80;;;6.70;;
67372;SDS011;54257;54.496;18.412;2023-03-01T07:29:36;9.70;;;6.40;;
67372;SDS011;54257;54.496;18.412;2023-03-01T07:32:04;12.00;;;7.10;;
67372;SDS011;54257;54.496;18.412;2023-03-01T07:34:32;11.30;;;7.00;;
67372;SDS011;54257;54.496;18.412;2023-03-01T07:36:59;10.80;;;6.50;;
67372;SDS011;54257;54.496;18.412;2023-03-01T07:39:26;10.70;;;6.30;;
67372;SDS011;54257;54.496;18.412;2023-03-01T07:41:54;12.60;;;7.90;;
67372;SDS011;54257;54.496;18.412;2023-03-01T07:44:23;14.80;;;8.10;;
67372;SDS011;54257;54.496;18.412;2023-03-01T07:46:50;11.80;;;7.40;;
67372;SDS011;54257;54.496;18.412;2023-03-01T07:49:23;11.20;;;6.50;;
67372;SDS011;54257;54.496;18.412;2023-03-01T07:51:55;13.60;;;7.80;;
67372;SDS011;54257;54.496;18.412;2023-03-01T07:54:29;11.90;;;7.40;;
67372;SDS011;54257;54.496;18.412;2023-03-01T07:56:56;10.00;;;6.70;;
67372;SDS011;54257;54.496;18.412;2023-03-01T07:59:24;10.80;;;6.60;;
67372;SDS011;54257;54.496;18.412;2023-03-01T08:01:56;9.70;;;6.70;;
67372;SDS011;54257;54.496;18.412;2023-03-01T08:04:23;11.40;;;6.60;;
67372;SDS011;54257;54.496;18.412;2023-03-01T08:06:54;8.50;;;5.40;;
67372;SDS011;54257;54.496;18.412;2023-03-01T08:09:21;8.30;;;5.80;;
67372;SDS011;54257;54.496;18.412;2023-03-01T08:11:49;7.80;;;5.10;;
67372;SDS011;54257;54.496;18.412;2023-03-01T08:14:16;11.40;;;6.40;;
67372;SDS011;54257;54.496;18.412;2023-03-01T08:16:43;7.50;;;5.30;;
67372;SDS011;54257;54.496;18.412;2023-03-01T08:19:10;9.40;;;5.90;;
67372;SDS011;54257;54.496;18.412;2023-03-01T08:21:39;9.90;;;6.00;;
67372;SDS011;54257;54.496;18.412;2023-03-01T08:24:06;6.90;;;5.50;;
67372;SDS011;54257;54.496;18.412;2023-03-01T08:26:34;9.50;;;6.40;;
67372;SDS011;54257;54.496;18.412;2023-03-01T08:29:01;8.90;;;5.60;;
67372;SDS011;54257;54.496;18.412;2023-03-01T08:31:32;7.50;;;5.40;;
67372;SDS011;54257;54.496;18.412;2023-03-01T08:34:06;7.20;;;5.20;;
67372;SDS011;54257;54.496;18.412;2023-03-01T08:36:36;9.90;;;6.40;;
67372;SDS011;54257;54.496;18.412;2023-03-01T08:39:06;8.40;;;5.80;;
67372;SDS011;54257;54.496;18.412;2023-03-01T08:41:35;7.00;;;5.00;;
67372;SDS011;54257;54.496;18.412;2023-03-01T08:44:02;9.80;;;6.40;;
67372;SDS011;54257;54.496;18.412;2023-03-01T08:46:34;8.00;;;5.90;;
67372;SDS011;54257;54.496;18.412;2023-03-01T08:49:04;8.20;;;5.90;;
67372;SDS011;54257;54.496;18.412;2023-03-01T08:51:32;9.00;;;6.10;;
67372;SDS011;54257;54.496;18.412;2023-03-01T08:54:03;7.50;;;5.70;;
67372;SDS011;54257;54.496;18.412;2023-03-01T08:56:31;11.30;;;6.80;;
67372;SDS011;54257;54.496;18.412;2023-03-01T08:58:58;8.90;;;5.80;;
67372;SDS011;54257;54.496;18.412;2023-03-01T09:01:25;11.10;;;6.60;;
67372;SDS011;54257;54.496;18.412;2023-03-01T09:03:53;7.60;;;5.30;;
67372;SDS011;54257;54.496;18.412;2023-03-01T09:06:20;8.30;;;5.50;;
67372;SDS011;54257;54.496;18.412;2023-03-01T09:08:48;9.20;;;5.80;;
67372;SDS011;54257;54.496;18.412;2023-03-01T09:11:19;8.90;;;6.20;;
67372;SDS011;54257;54.496;18.412;2023-03-01T09:13:48;8.50;;;5.80;;
67372;SDS011;54257;54.496;18.412;2023-03-01T09:16:17;8.50;;;5.60;;
67372;SDS011;54257;54.496;18.412;2023-03-01T09:18:48;8.40;;;6.00;;
67372;SDS011;54257;54.496;18.412;2023-03-01T09:21:18;8.30;;;5.40;;
67372;SDS011;54257;54.496;18.412;2023-03-01T09:23:47;7.60;;;5.50;;
67372;SDS011;54257;54.496;18.412;2023-03-01T09:26:15;7.60;;;5.80;;
67372;SDS011;54257;54.496;18.412;2023-03-01T09:28:46;6.90;;;5.40;;
67372;SDS011;54257;54.496;18.412;2023-03-01T09:31:18;7.30;;;5.70;;
67372;SDS011;54257;54.496;18.412;2023-03-01T09:33:47;7.60;;;5.80;;
67372;SDS011;54257;54.496;18.412;2023-03-01T09:36:21;7.60;;;6.00;;
67372;SDS011;54257;54.496;18.412;2023-03-01T09:38:50;8.90;;;6.90;;
67372;SDS011;54257;54.496;18.412;2023-03-01T09:41:42;10.60;;;7.60;;
67372;SDS011;54257;54.496;18.412;2023-03-01T09:47:00;8.40;;;6.40;;
67372;SDS011;54257;54.496;18.412;2023-03-01T09:49:30;8.50;;;6.20;;
67372;SDS011;54257;54.496;18.412;2023-03-01T09:52:16;10.40;;;7.80;;
67372;SDS011;54257;54.496;18.412;2023-03-01T09:55:00;9.90;;;7.60;;
67372;SDS011;54257;54.496;18.412;2023-03-01T09:57:46;8.00;;;6.40;;
67372;SDS011;54257;54.496;18.412;2023-03-01T10:00:24;9.00;;;6.70;;
67372;SDS011;54257;54.496;18.412;2023-03-01T10:05:56;10.90;;;6.80;;
67372;SDS011;54257;54.496;18.412;2023-03-01T10:11:25;7.80;;;6.30;;
67372;SDS011;54257;54.496;18.412;2023-03-01T10:17:24;9.70;;;7.70;;
67372;SDS011;54257;54.496;18.412;2023-03-01T10:19:55;8.70;;;6.80;;
67372;SDS011;54257;54.496;18.412;2023-03-01T10:22:37;7.70;;;6.20;;
67372;SDS011;54257;54.496;18.412;2023-03-01T10:25:04;7.70;;;6.50;;
67372;SDS011;54257;54.496;18.412;2023-03-01T10:27:37;9.40;;;6.90;;
67372;SDS011;54257;54.496;18.412;2023-03-01T10:32:44;9.20;;;7.10;;
67372;SDS011;54257;54.496;18.412;2023-03-01T10:35:24;9.60;;;6.30;;
67372;SDS011;54257;54.496;18.412;2023-03-01T10:40:31;11.10;;;7.20;;
67372;SDS011;54257;54.496;18.412;2023-03-01T10:43:01;8.90;;;7.60;;
67372;SDS011;54257;54.496;18.412;2023-03-01T10:50:43;11.30;;;7.60;;
67372;SDS011;54257;54.496;18.412;2023-03-01T10:53:23;10.90;;;8.30;;
67372;SDS011;54257;54.496;18.412;2023-03-01T10:56:00;8.20;;;6.90;;
67372;SDS011;54257;54.496;18.412;2023-03-01T10:58:28;9.40;;;7.00;;
67372;SDS011;54257;54.496;18.412;2023-03-01T11:00:57;7.80;;;6.30;;
67372;SDS011;54257;54.496;18.412;2023-03-01T11:03:31;32.70;;;16.00;;
67372;SDS011;54257;54.496;18.412;2023-03-01T11:06:02;47.10;;;22.70;;
67372;SDS011;54257;54.496;18.412;2023-03-01T11:08:31;180.20;;;59.40;;
67372;SDS011;54257;54.496;18.412;2023-03-01T11:11:06;20.30;;;11.70;;
67372;SDS011;54257;54.496;18.412;2023-03-01T11:14:05;93.20;;;38.60;;
67372;SDS011;54257;54.496;18.412;2023-03-01T11:16:40;92.30;;;36.20;;
67372;SDS011;54257;54.496;18.412;2023-03-01T11:21:41;22.60;;;14.30;;
67372;SDS011;54257;54.496;18.412;2023-03-01T11:24:15;125.70;;;47.00;;
67372;SDS011;54257;54.496;18.412;2023-03-01T11:26:47;65.60;;;28.40;;
67372;SDS011;54257;54.496;18.412;2023-03-01T11:29:27;161.90;;;56.90;;
67372;SDS011;54257;54.496;18.412;2023-03-01T11:32:00;153.30;;;55.70;;
67372;SDS011;54257;54.496;18.412;2023-03-01T11:37:08;25.10;;;14.80;;
67372;SDS011;54257;54.496;18.412;2023-03-01T11:39:59;14.60;;;9.30;;
67372;SDS011;54257;54.496;18.412;2023-03-01T11:43:00;51.20;;;23.00;;
67372;SDS011;54257;54.496;18.412;2023-03-01T11:45:31;12.30;;;9.20;;
67372;SDS011;54257;54.496;18.412;2023-03-01T11:48:31;20.90;;;13.20;;
67372;SDS011;54257;54.496;18.412;2023-03-01T11:56:54;23.90;;;14.50;;
67372;SDS011;54257;54.496;18.412;2023-03-01T11:59:44;37.50;;;19.00;;
67372;SDS011;54257;54.496;18.412;2023-03-01T12:10:49;12.30;;;9.10;;
67372;SDS011;54257;54.496;18.412;2023-03-01T12:25:04;12.00;;;9.50;;
67372;SDS011;54257;54.496;18.412;2023-03-01T12:34:27;13.90;;;9.60;;
67372;SDS011;54257;54.496;18.412;2023-03-01T12:42:05;11.30;;;8.40;;
67372;SDS011;54257;54.496;18.412;2023-03-01T12:47:21;12.10;;;9.40;;
67372;SDS011;54257;54.496;18.412;2023-03-01T12:50:21;9.90;;;8.10;;
67372;SDS011;54257;54.496;18.412;2023-03-01T12:52:53;10.10;;;8.00;;
67372;SDS011;54257;54.496;18.412;2023-03-01T12:55:36;9.10;;;7.30;;
67372;SDS011;54257;54.496;18.412;2023-03-01T12:58:11;11.00;;;7.80;;
67372;SDS011;54257;54.496;18.412;2023-03-01T13:06:44;7.00;;;6.30;;
67372;SDS011;54257;54.496;18.412;2023-03-01T13:12:03;8.00;;;6.40;;
67372;SDS011;54257;54.496;18.412;2023-03-01T13:17:03;8.70;;;7.20;;
67372;SDS011;54257;54.496;18.412;2023-03-01T13:19:30;9.30;;;7.10;;
67372;SDS011;54257;54.496;18.412;2023-03-01T13:21:58;7.70;;;6.50;;
67372;SDS011;54257;54.496;18.412;2023-03-01T13:24:26;9.70;;;7.30;;
67372;SDS011;54257;54.496;18.412;2023-03-01T13:29:46;10.10;;;6.80;;
67372;SDS011;54257;54.496;18.412;2023-03-01T13:34:55;11.60;;;7.20;;
67372;SDS011;54257;54.496;18.412;2023-03-01T13:37:36;9.30;;;5.70;;
67372;SDS011;54257;54.496;18.412;2023-03-01T13:40:05;7.40;;;5.70;;
67372;SDS011;54257;54.496;18.412;2023-03-01T13:42:51;8.70;;;6.30;;
67372;SDS011;54257;54.496;18.412;2023-03-01T13:45:36;7.20;;;6.10;;
67372;SDS011;54257;54.496;18.412;2023-03-01T13:48:17;9.30;;;6.10;;
67372;SDS011;54257;54.496;18.412;2023-03-01T13:50:58;6.40;;;5.10;;
67372;SDS011;54257;54.496;18.412;2023-03-01T13:53:31;8.70;;;6.10;;
67372;SDS011;54257;54.496;18.412;2023-03-01T13:56:12;8.30;;;6.20;;
67372;SDS011;54257;54.496;18.412;2023-03-01T14:01:34;7.40;;;6.00;;
67372;SDS011;54257;54.496;18.412;2023-03-01T14:04:03;6.30;;;5.40;;
67372;SDS011;54257;54.496;18.412;2023-03-01T14:06:44;8.60;;;5.90;;
67372;SDS011;54257;54.496;18.412;2023-03-01T14:09:24;6.70;;;5.80;;
67372;SDS011;54257;54.496;18.412;2023-03-01T14:14:36;7.20;;;5.80;;
67372;SDS011;54257;54.496;18.412;2023-03-01T14:18:10;7.70;;;6.10;;
67372;SDS011;54257;54.496;18.412;2023-03-01T14:20:14;7.80;;;6.00;;
67372;SDS011;54257;54.496;18.412;2023-03-01T14:22:46;7.00;;;5.60;;
67372;SDS011;54257;54.496;18.412;2023-03-01T14:25:25;8.20;;;5.50;;
67372;SDS011;54257;54.496;18.412;2023-03-01T14:30:33;11.50;;;6.50;;
67372;SDS011;54257;54.496;18.412;2023-03-01T14:33:17;8.60;;;6.10;;
67372;SDS011;54257;54.496;18.412;2023-03-01T14:35:53;6.10;;;5.10;;
67372;SDS011;54257;54.496;18.412;2023-03-01T14:38:39;8.10;;;5.40;;
67372;SDS011;54257;54.496;18.412;2023-03-01T14:46:22;9.80;;;5.60;;
67372;SDS011;54257;54.496;18.412;2023-03-01T14:48:54;6.90;;;5.70;;
67372;SDS011;54257;54.496;18.412;2023-03-01T14:51:28;9.80;;;6.00;;
67372;SDS011;54257;54.496;18.412;2023-03-01T14:53:56;8.90;;;6.00;;
67372;SDS011;54257;54.496;18.412;2023-03-01T14:56:23;10.00;;;6.40;;
67372;SDS011;54257;54.496;18.412;2023-03-01T14:58:51;10.10;;;6.60;;
67372;SDS011;54257;54.496;18.412;2023-03-01T15:01:19;7.40;;;5.50;;
67372;SDS011;54257;54.496;18.412;2023-03-01T15:03:47;9.80;;;6.80;;
67372;SDS011;54257;54.496;18.412;2023-03-01T15:06:17;7.40;;;6.30;;
67372;SDS011;54257;54.496;18.412;2023-03-01T15:08:47;9.40;;;6.50;;
67372;SDS011;54257;54.496;18.412;2023-03-01T15:13:58;12.60;;;8.20;;
67372;SDS011;54257;54.496;18.412;2023-03-01T15:16:27;9.60;;;7.20;;
67372;SDS011;54257;54.496;18.412;2023-03-01T15:18:55;9.90;;;7.00;;
67372;SDS011;54257;54.496;18.412;2023-03-01T15:21:35;9.30;;;6.10;;
67372;SDS011;54257;54.496;18.412;2023-03-01T15:26:50;8.10;;;7.00;;
67372;SDS011;54257;54.496;18.412;2023-03-01T15:29:21;9.80;;;7.50;;
67372;SDS011;54257;54.496;18.412;2023-03-01T15:31:58;10.00;;;7.00;;
67372;SDS011;54257;54.496;18.412;2023-03-01T15:34:35;13.20;;;7.50;;
67372;SDS011;54257;54.496;18.412;2023-03-01T15:37:36;11.90;;;7.20;;
67372;SDS011;54257;54.496;18.412;2023-03-01T15:40:22;9.60;;;7.40;;
67372;SDS011;54257;54.496;18.412;2023-03-01T15:43:00;10.60;;;7.10;;
67372;SDS011;54257;54.496;18.412;2023-03-01T15:45:30;10.90;;;7.10;;
67372;SDS011;54257;54.496;18.412;2023-03-01T15:48:01;12.00;;;7.90;;
67372;SDS011;54257;54.496;18.412;2023-03-01T15:50:40;11.80;;;7.50;;
67372;SDS011;54257;54.496;18.412;2023-03-01T15:53:10;10.10;;;7.00;;
67372;SDS011;54257;54.496;18.412;2023-03-01T15:55:41;10.90;;;6.90;;
67372;SDS011;54257;54.496;18.412;2023-03-01T15:58:12;12.20;;;7.90;;
67372;SDS011;54257;54.496;18.412;2023-03-01T16:00:48;11.80;;;7.70;;
67372;SDS011;54257;54.496;18.412;2023-03-01T16:03:22;15.90;;;9.20;;
67372;SDS011;54257;54.496;18.412;2023-03-01T16:05:49;14.00;;;9.80;;
67372;SDS011;54257;54.496;18.412;2023-03-01T16:08:18;11.60;;;7.90;;
67372;SDS011;54257;54.496;18.412;2023-03-01T16:10:45;10.10;;;6.30;;
67372;SDS011;54257;54.496;18.412;2023-03-01T16:13:14;8.00;;;5.50;;
67372;SDS011;54257;54.496;18.412;2023-03-01T16:15:41;8.30;;;5.50;;
67372;SDS011;54257;54.496;18.412;2023-03-01T16:18:08;10.20;;;7.10;;
67372;SDS011;54257;54.496;18.412;2023-03-01T16:20:39;12.40;;;7.20;;
67372;SDS011;54257;54.496;18.412;2023-03-01T16:23:07;9.70;;;6.30;;
67372;SDS011;54257;54.496;18.412;2023-03-01T16:25:36;8.10;;;5.20;;
67372;SDS011;54257;54.496;18.412;2023-03-01T16:28:04;5.90;;;4.10;;
67372;SDS011;54257;54.496;18.412;2023-03-01T16:30:35;6.20;;;4.20;;
67372;SDS011;54257;54.496;18.412;2023-03-01T16:33:03;7.90;;;4.70;;
67372;SDS011;54257;54.496;18.412;2023-03-01T16:35:33;6.80;;;4.70;;
67372;SDS011;54257;54.496;18.412;2023-03-01T16:38:00;9.60;;;5.50;;
67372;SDS011;54257;54.496;18.412;2023-03-01T16:40:28;14.30;;;7.60;;
67372;SDS011;54257;54.496;18.412;2023-03-01T16:42:56;4.90;;;3.60;;
67372;SDS011;54257;54.496;18.412;2023-03-01T16:45:27;7.10;;;4.70;;
67372;SDS011;54257;54.496;18.412;2023-03-01T16:47:58;4.90;;;3.10;;
67372;SDS011;54257;54.496;18.412;2023-03-01T16:50:28;6.80;;;3.10;;
67372;SDS011;54257;54.496;18.412;2023-03-01T16:52:55;3.90;;;2.50;;